Time;durP1;ratioP1;P1;durP2;ratioP2;P2;SDS_P1;SDS_P2;PMS_P1;PMS_P2;Temp;Humidity;BMP_temperature;BMP_pressure;BME280_temperature;BME280_humidity;BME280_pressure;Samples;Min_cycle;Max_cycle;Signal;HPM_P1;HPM_P2
2023/01/03 00:01:47;;;;;;;72.93;41.30;;;;;;;6.26;68.37;95674.28;4176091;28;20072;-76
2023/01/03 00:03:51;;;;;;;76.28;39.95;;;;;;;6.31;68.04;95676.53;4151670;28;20057;-74
2023/01/03 00:05:53;;;;;;;67.82;39.90;;;;;;;6.23;68.09;95673.66;4161912;28;20056;-74
2023/01/03 00:07:55;;;;;;;67.57;39.92;;;;;;;6.20;68.15;95666.06;4179342;28;20057;-75
2023/01/03 00:09:57;;;;;;;70.40;39.97;;;;;;;6.21;67.53;95678.13;4161292;28;20493;-72
2023/01/03 00:14:24;;;;;;;68.78;39.78;;;;;;;6.21;68.02;95668.53;4179438;28;20428;-76
2023/01/03 00:16:26;;;;;;;68.07;40.35;;;;;;;6.27;68.25;95677.69;4180567;28;20053;-76
2023/01/03 00:18:28;;;;;;;63.40;38.88;;;;;;;6.27;67.55;95664.69;4180444;28;20053;-75
2023/01/03 00:20:30;;;;;;;65.63;40.08;;;;;;;6.26;67.57;95668.22;4181374;28;20071;-75
2023/01/03 00:22:31;;;;;;;72.40;41.92;;;;;;;6.30;68.02;95667.91;4162899;28;20053;-75
2023/01/03 00:24:33;;;;;;;65.05;41.80;;;;;;;6.37;68.35;95673.50;4174968;28;20054;-75
2023/01/03 00:26:36;;;;;;;73.93;44.72;;;;;;;6.36;67.67;95671.84;4169656;28;20451;-75
2023/01/03 00:28:37;;;;;;;69.03;42.25;;;;;;;6.28;67.33;95669.78;4178740;28;20478;-76
2023/01/03 00:30:39;;;;;;;78.75;44.38;;;;;;;6.25;67.27;95666.56;4178281;28;20094;-75
2023/01/03 00:32:41;;;;;;;76.03;44.67;;;;;;;6.21;67.17;95671.16;4165628;28;20057;-74
2023/01/03 00:34:44;;;;;;;77.80;45.00;;;;;;;6.18;67.50;95673.97;4178741;28;20044;-74
2023/01/03 00:36:46;;;;;;;71.25;42.90;;;;;;;6.15;67.48;95668.97;4160675;28;20053;-71
2023/01/03 00:38:48;;;;;;;70.97;42.47;;;;;;;6.07;67.79;95673.91;4178282;28;20052;-74
2023/01/03 00:40:49;;;;;;;74.70;41.63;;;;;;;6.06;67.93;95672.22;4150089;28;20049;-74
2023/01/03 00:45:12;;;;;;;65.68;40.05;;;;;;;6.06;67.53;95667.03;4175126;28;20067;-75
2023/01/03 00:47:20;;;;;;;60.88;36.35;;;;;;;6.08;67.58;95665.97;4165995;28;20064;-76
2023/01/03 00:49:21;;;;;;;60.03;35.88;;;;;;;6.12;67.98;95670.03;4155856;28;20060;-72
2023/01/03 00:51:25;;;;;;;66.07;38.45;;;;;;;6.12;67.53;95659.63;4161070;28;20127;-76
2023/01/03 00:53:27;;;;;;;65.57;39.80;;;;;;;6.13;67.96;95666.50;4178462;28;20454;-75
2023/01/03 00:55:29;;;;;;;63.03;39.33;;;;;;;6.13;67.70;95663.91;4176711;28;20087;-72
2023/01/03 00:57:30;;;;;;;65.75;36.53;;;;;;;6.15;67.56;95664.63;4187314;28;20053;-76
2023/01/03 00:59:32;;;;;;;61.60;35.22;;;;;;;6.10;67.63;95660.66;4183328;28;20127;-75
2023/01/03 01:01:42;;;;;;;59.20;33.97;;;;;;;6.10;67.88;95661.50;4179661;28;20045;-74
2023/01/03 01:03:51;;;;;;;59.95;35.03;;;;;;;6.05;67.34;95663.59;4169101;28;20057;-75
2023/01/03 01:05:53;;;;;;;56.35;34.40;;;;;;;6.05;67.64;95661.00;4170432;28;20084;-75
2023/01/03 01:07:55;;;;;;;55.38;35.22;;;;;;;6.08;67.27;95660.78;4179005;28;20322;-76
2023/01/03 01:09:57;;;;;;;59.38;37.15;;;;;;;6.05;67.53;95666.19;4177670;28;20538;-74
2023/01/03 01:11:58;;;;;;;69.68;37.92;;;;;;;6.03;67.77;95655.06;4177540;28;20080;-76
2023/01/03 01:14:00;;;;;;;67.65;39.28;;;;;;;6.00;67.56;95654.44;4166169;28;20085;-74
2023/01/03 01:16:05;;;;;;;62.53;36.03;;;;;;;5.99;67.60;95660.59;4179803;28;20063;-75
2023/01/03 01:18:07;;;;;;;54.90;33.97;;;;;;;5.84;67.77;95655.50;4178074;28;20049;-74
2023/01/03 01:20:09;;;;;;;59.10;34.72;;;;;;;5.81;68.47;95654.84;4176884;28;20077;-77
2023/01/03 01:22:11;;;;;;;58.72;34.47;;;;;;;5.77;68.48;95651.66;4162554;28;20049;-76
2023/01/03 01:24:13;;;;;;;56.08;34.53;;;;;;;5.74;68.56;95651.84;4152920;28;20053;-76
2023/01/03 01:26:20;;;;;;;64.50;37.75;;;;;;;5.83;68.24;95658.19;4149198;28;20053;-76
2023/01/03 01:28:22;;;;;;;;;;;;;;;5.83;67.93;95648.63;4163405;28;20052;-75
2023/01/03 01:30:24;;;;;;;73.95;42.58;;;;;;;5.85;67.89;95646.75;4174257;28;19974;-75
2023/01/03 01:32:25;;;;;;;73.25;42.72;;;;;;;5.86;68.20;95647.59;4178208;28;20088;-74
2023/01/03 01:34:28;;;;;;;67.95;41.72;;;;;;;5.87;67.87;95651.84;4170862;28;20053;-74
2023/01/03 01:36:32;;;;;;;65.25;39.72;;;;;;;5.83;67.68;95650.38;4178293;28;20049;-73
2023/01/03 01:38:34;;;;;;;68.07;39.28;;;;;;;5.67;67.78;95645.44;4164453;28;20160;-77
2023/01/03 01:40:35;;;;;;;70.65;41.97;;;;;;;5.71;68.30;95649.47;4164850;28;20417;-75
2023/01/03 01:45:02;;;;;;;67.18;41.15;;;;;;;5.71;68.65;95645.09;4177841;28;20053;-76
2023/01/03 01:47:06;;;;;;;65.90;40.95;;;;;;;5.66;68.39;95639.41;4147550;28;20133;-77
2023/01/03 01:49:12;;;;;;;68.38;42.15;;;;;;;5.71;68.02;95641.69;4156293;28;20054;-74
2023/01/03 01:51:14;;;;;;;64.63;40.63;;;;;;;5.72;68.54;95640.72;4164818;28;20133;-76
2023/01/03 01:53:32;;;;;;;65.35;39.75;;;;;;;5.69;68.31;95630.56;4165340;28;20146;-74
2023/01/03 01:56:01;;;;;;;66.45;39.78;;;;;;;5.74;68.30;95633.66;4143472;28;20069;-76
2023/01/03 01:58:06;;;;;;;69.57;41.28;;;;;;;5.75;68.09;95633.56;4170245;28;20045;-75
2023/01/03 02:00:09;;;;;;;64.25;39.50;;;;;;;5.75;67.83;95638.75;4178666;28;20127;-75
2023/01/03 02:02:13;;;;;;;58.53;38.70;;;;;;;5.72;67.83;95630.31;4177948;28;20115;-76
2023/01/03 02:04:20;;;;;;;61.78;38.45;;;;;;;5.64;68.00;95632.66;4177024;28;20174;-75
2023/01/03 02:06:23;;;;;;;61.38;38.17;;;;;;;5.61;68.32;95643.25;4160468;28;20152;-76
2023/01/03 02:08:25;;;;;;;65.10;39.35;;;;;;;5.50;68.36;95639.59;4160168;28;20134;-75
2023/01/03 02:10:53;;;;;;;60.45;37.63;;;;;;;5.50;68.15;95629.22;4178062;28;20145;-75
2023/01/03 02:13:47;;;;;;;65.55;39.65;;;;;;;5.44;68.18;95642.66;4169579;28;20065;-74
2023/01/03 02:15:55;;;;;;;63.08;37.33;;;;;;;5.26;69.18;95634.31;4170417;28;20139;-73
2023/01/03 02:18:18;;;;;;;56.83;34.80;;;;;;;5.19;69.88;95638.28;4159776;28;20545;-75
2023/01/03 02:20:31;;;;;;;41.72;28.85;;;;;;;5.05;70.81;95633.16;4177404;28;20052;-73
2023/01/03 02:23:01;;;;;;;41.97;26.90;;;;;;;4.84;71.08;95638.84;4160124;28;20053;-75
2023/01/03 02:25:33;;;;;;;42.47;27.10;;;;;;;4.80;71.87;95633.97;4174578;28;20127;-74
2023/01/03 02:27:43;;;;;;;38.55;26.10;;;;;;;4.75;71.69;95638.63;4172853;28;20053;-74
2023/01/03 02:30:08;;;;;;;44.45;26.65;;;;;;;4.73;71.47;95641.31;4178718;28;20079;-76
2023/01/03 02:32:24;;;;;;;45.70;28.60;;;;;;;4.76;71.77;95640.28;4160472;28;20465;-75
2023/01/03 02:34:38;;;;;;;47.13;29.00;;;;;;;4.87;71.62;95637.81;4161307;28;20611;-75
2023/01/03 02:36:57;;;;;;;46.33;31.17;;;;;;;4.98;71.05;95630.16;4145074;28;20045;-75
2023/01/03 02:39:05;;;;;;;47.03;29.50;;;;;;;5.02;70.77;95634.19;4172698;28;20347;-78
2023/01/03 02:41:23;;;;;;;44.78;29.35;;;;;;;5.08;70.64;95625.19;4147218;28;20057;-73
2023/01/03 02:43:51;;;;;;;50.85;30.27;;;;;;;5.16;70.19;95625.47;4149722;28;20108;-74
2023/01/03 02:46:03;;;;;;;49.25;28.75;;;;;;;5.21;70.00;95625.19;4159391;28;20061;-74
2023/01/03 02:48:18;;;;;;;49.30;31.50;;;;;;;5.23;69.85;95616.34;4134129;28;20120;-76
2023/01/03 02:50:20;;;;;;;;;;;;;;;5.21;69.28;95626.00;4161189;28;20053;-75
2023/01/03 02:52:25;;;;;;;52.22;32.67;;;;;;;5.23;69.41;95623.31;4159144;28;20376;-75
2023/01/03 02:54:35;;;;;;;52.50;30.83;;;;;;;5.26;69.12;95621.31;4145403;28;20053;-76
2023/01/03 02:56:59;;;;;;;48.10;29.45;;;;;;;5.27;69.37;95617.81;4155031;28;20116;-75
2023/01/03 02:59:05;;;;;;;48.95;31.45;;;;;;;5.25;69.03;95613.66;4151845;28;20425;-75
2023/01/03 03:01:09;;;;;;;47.33;30.13;;;;;;;5.22;69.09;95622.47;4162102;28;20053;-74
2023/01/03 03:03:14;;;;;;;45.47;29.67;;;;;;;5.24;68.90;95618.00;4176503;28;20501;-75
2023/01/03 03:05:23;;;;;;;46.38;28.38;;;;;;;5.25;69.17;95624.88;4171412;28;20049;-74
2023/01/03 03:07:27;;;;;;;45.80;28.50;;;;;;;5.25;68.86;95626.66;4148184;28;20448;-77
2023/01/03 03:09:29;;;;;;;47.25;29.67;;;;;;;5.24;68.52;95619.78;4168990;28;20068;-75
2023/01/03 03:14:00;;;;;;;45.50;28.90;;;;;;;5.06;69.11;95614.06;4174437;28;20060;-74
2023/01/03 03:16:05;;;;;;;44.58;29.85;;;;;;;5.03;70.09;95622.88;4143944;28;20112;-75
2023/01/03 03:18:11;;;;;;;52.28;31.38;;;;;;;4.99;70.05;95615.38;4163372;28;20049;-76
2023/01/03 03:25:26;;;;;;;44.80;29.38;;;;;;;5.04;69.50;95619.34;4164153;28;20060;-75
2023/01/03 03:29:51;;;;;;;46.55;31.35;;;;;;;5.17;69.44;95608.97;4158914;28;20614;-78
2023/01/03 03:31:54;;;;;;;44.08;28.85;;;;;;;5.19;69.39;95614.91;4170452;28;20110;-74
2023/01/03 03:34:28;;;;;;;44.10;29.05;;;;;;;5.20;68.97;95616.53;4162762;28;20092;-74
2023/01/03 03:36:42;;;;;;;46.60;29.38;;;;;;;5.21;68.62;95620.81;4143792;28;20057;-77
2023/01/03 03:38:45;;;;;;;42.17;29.20;;;;;;;5.16;68.27;95619.47;4157391;28;20073;-76
2023/01/03 03:46:04;;;;;;;107.38;68.40;;;;;;;4.81;70.76;95628.66;4164476;28;20056;-76
2023/01/03 03:48:12;;;;;;;136.80;79.35;;;;;;;4.69;71.62;95635.50;4173052;28;20056;-76
2023/01/03 03:50:19;;;;;;;128.93;75.80;;;;;;;4.50;72.08;95633.25;4180846;28;20123;-77
2023/01/03 03:52:25;;;;;;;131.75;78.57;;;;;;;4.44;72.54;95636.25;4164724;28;20129;-75
2023/01/03 03:54:28;;;;;;;137.73;81.50;;;;;;;4.47;72.67;95633.47;4172692;28;20053;-76
2023/01/03 03:56:33;;;;;;;153.52;86.85;;;;;;;4.49;72.32;95629.00;4146213;28;20143;-76
2023/01/03 03:58:40;;;;;;;138.32;83.00;;;;;;;4.44;72.47;95628.47;4179643;28;20136;-75
2023/01/03 04:00:43;;;;;;;126.97;72.40;;;;;;;4.47;72.24;95638.66;4166924;28;20053;-75
2023/01/03 04:02:48;;;;;;;146.57;91.82;;;;;;;4.45;72.44;95632.75;4156268;28;20057;-76
2023/01/03 04:04:54;;;;;;;150.43;90.97;;;;;;;4.41;72.70;95622.63;4161339;28;20121;-73
2023/01/03 04:06:56;;;;;;;130.32;77.85;;;;;;;4.49;71.86;95626.38;4164647;28;20176;-76
2023/01/03 04:08:58;;;;;;;110.90;67.03;;;;;;;4.58;72.58;95621.53;4186751;28;20495;-74
2023/01/03 04:11:06;;;;;;;73.88;47.42;;;;;;;4.67;71.30;95616.59;4149846;28;20434;-77
2023/01/03 04:13:07;;;;;;;99.45;61.85;;;;;;;4.72;70.38;95617.13;4163215;28;20089;-73
2023/01/03 04:15:09;;;;;;;111.65;66.28;;;;;;;4.71;70.76;95620.66;4181707;28;20126;-76
2023/01/03 04:17:11;;;;;;;121.22;72.65;;;;;;;4.70;70.50;95618.16;4179950;28;20049;-76
2023/01/03 04:19:13;;;;;;;122.88;75.03;;;;;;;4.74;70.75;95622.22;4162269;28;20170;-76
2023/01/03 04:21:15;;;;;;;127.10;74.80;;;;;;;4.69;70.14;95619.09;4149194;28;20064;-75
2023/01/03 04:23:21;;;;;;;124.95;77.70;;;;;;;4.60;70.52;95617.09;4179871;28;20061;-76
2023/01/03 04:25:23;;;;;;;114.20;72.32;;;;;;;4.51;70.40;95616.75;4172122;28;20115;-77
2023/01/03 04:27:25;;;;;;;115.97;70.53;;;;;;;4.43;71.04;95621.63;4175517;28;20523;-75
2023/01/03 04:29:27;;;;;;;107.53;66.43;;;;;;;4.38;71.68;95626.25;4178035;28;20061;-73
2023/01/03 04:31:28;;;;;;;117.32;71.65;;;;;;;4.37;71.58;95618.59;4179751;28;20057;-77
2023/01/03 04:33:30;;;;;;;121.43;71.32;;;;;;;4.44;71.41;95630.22;4179574;28;20064;-75
2023/01/03 04:35:33;;;;;;;111.03;68.53;;;;;;;4.51;71.22;95629.72;4180098;28;20408;-75
2023/01/03 04:37:34;;;;;;;108.80;65.60;;;;;;;4.53;70.70;95624.44;4179084;28;20299;-75
2023/01/03 04:39:36;;;;;;;124.78;72.97;;;;;;;4.51;70.78;95629.72;4173736;28;20080;-74
2023/01/03 04:41:38;;;;;;;119.32;74.88;;;;;;;4.55;70.64;95637.31;4163120;28;20099;-75
2023/01/03 04:46:00;;;;;;;122.05;76.97;;;;;;;4.61;70.08;95636.94;4167761;28;20534;-75
2023/01/03 04:48:02;;;;;;;111.47;72.00;;;;;;;4.66;70.40;95646.06;4172096;28;20147;-78
2023/01/03 04:50:04;;;;;;;105.70;67.72;;;;;;;4.67;70.23;95652.13;4179747;28;20049;-76
2023/01/03 04:52:06;;;;;;;111.88;69.28;;;;;;;4.69;69.72;95652.84;4178794;28;20049;-75
2023/01/03 04:54:08;;;;;;;110.65;70.32;;;;;;;4.64;69.88;95657.47;4173255;28;20107;-77
2023/01/03 04:56:10;;;;;;;121.25;72.50;;;;;;;4.57;70.49;95656.22;4170793;28;20504;-77
2023/01/03 04:58:12;;;;;;;127.55;73.72;;;;;;;4.57;70.83;95661.41;4178531;28;20515;-75
2023/01/03 05:00:14;;;;;;;145.65;82.65;;;;;;;4.53;70.49;95659.94;4178690;28;20357;-77
2023/01/03 05:02:16;;;;;;;132.70;78.43;;;;;;;4.51;70.90;95657.44;4161349;28;20515;-76
2023/01/03 05:04:18;;;;;;;136.07;79.22;;;;;;;4.57;70.42;95651.84;4178994;28;20416;-75
2023/01/03 05:06:20;;;;;;;123.60;73.85;;;;;;;4.60;69.93;95656.00;4161040;28;20050;-76
2023/01/03 05:08:21;;;;;;;138.95;77.07;;;;;;;4.64;70.01;95660.91;4173154;28;20480;-79
2023/01/03 05:10:24;;;;;;;109.95;66.10;;;;;;;4.65;69.25;95661.75;4161190;28;20075;-78
2023/01/03 05:12:26;;;;;;;109.45;68.35;;;;;;;4.64;69.78;95653.13;4172428;28;20049;-76
2023/01/03 05:14:28;;;;;;;108.30;65.28;;;;;;;4.68;69.49;95664.97;4164774;28;20064;-77
2023/01/03 05:16:30;;;;;;;116.22;69.60;;;;;;;4.69;69.63;95665.81;4180440;28;20092;-77
2023/01/03 05:18:32;;;;;;;128.70;73.63;;;;;;;4.70;69.06;95664.88;4179172;28;20053;-76
2023/01/03 05:27:38;;;;;;;98.03;58.28;;;;;;;4.87;68.59;95667.19;4178657;28;20076;-76
2023/01/03 05:29:40;;;;;;;94.03;57.30;;;;;;;4.88;68.95;95668.03;4144220;28;20084;-75
2023/01/03 05:31:42;;;;;;;97.90;60.42;;;;;;;4.80;68.88;95665.94;4152903;28;20065;-77
2023/01/03 05:33:43;;;;;;;95.88;58.53;;;;;;;4.79;68.97;95661.69;4178294;28;20122;-77
2023/01/03 05:35:46;;;;;;;103.32;61.10;;;;;;;4.75;68.81;95660.22;4178325;28;20531;-76
2023/01/03 05:37:51;;;;;;;107.43;62.53;;;;;;;4.77;69.35;95663.53;4178838;28;20061;-73
2023/01/03 05:39:53;;;;;;;112.10;65.13;;;;;;;4.72;69.10;95653.47;4161022;28;20061;-76
2023/01/03 05:42:01;;;;;;;102.22;61.08;;;;;;;4.77;68.59;95663.53;4178764;28;20331;-76
2023/01/03 05:44:03;;;;;;;99.25;63.45;;;;;;;4.77;68.81;95663.53;4153475;28;20049;-74
2023/01/03 05:46:04;;;;;;;108.45;64.00;;;;;;;4.78;68.42;95654.00;4177617;28;20057;-76
2023/01/03 05:48:07;;;;;;;104.15;63.63;;;;;;;4.75;68.68;95655.00;4178299;28;20075;-77
2023/01/03 05:50:09;;;;;;;113.70;68.10;;;;;;;4.66;68.94;95659.03;4156342;28;20049;-77
2023/01/03 05:52:11;;;;;;;107.10;66.00;;;;;;;4.66;69.44;95656.44;4171699;28;20084;-75
2023/01/03 05:54:14;;;;;;;111.97;65.90;;;;;;;4.64;69.39;95660.06;4178968;28;20483;-76
2023/01/03 05:56:16;;;;;;;105.40;64.70;;;;;;;4.65;69.81;95664.34;4174943;28;20057;-78
2023/01/03 05:58:18;;;;;;;104.65;64.45;;;;;;;4.51;69.22;95660.84;4178728;28;20627;-76
2023/01/03 06:00:19;;;;;;;115.15;66.25;;;;;;;4.55;69.34;95666.69;4178511;28;20474;-76
2023/01/03 06:02:21;;;;;;;116.22;66.55;;;;;;;4.59;69.97;95667.34;4164878;28;20098;-77
2023/01/03 06:04:23;;;;;;;113.88;68.50;;;;;;;4.66;69.61;95676.38;4160314;28;20535;-76
2023/01/03 06:06:25;;;;;;;121.53;74.80;;;;;;;4.65;68.94;95679.94;4168486;28;20501;-78
2023/01/03 06:08:26;;;;;;;119.20;70.13;;;;;;;4.66;69.14;95666.81;4176975;28;20385;-77
2023/01/03 06:10:28;;;;;;;120.63;71.22;;;;;;;4.68;69.12;95675.34;4147226;28;20049;-75
2023/01/03 06:12:30;;;;;;;117.30;70.13;;;;;;;4.70;68.90;95680.44;4173164;28;20057;-77
2023/01/03 06:14:32;;;;;;;124.93;71.55;;;;;;;4.72;68.57;95674.22;4177636;28;20468;-78
2023/01/03 06:18:54;;;;;;;119.55;71.80;;;;;;;4.83;68.04;95681.31;4178145;28;20289;-74
2023/01/03 06:20:56;;;;;;;131.85;76.30;;;;;;;4.82;67.99;95687.44;4160960;28;20068;-75
2023/01/03 06:22:58;;;;;;;137.18;83.75;;;;;;;4.29;69.34;95692.53;4168619;28;20405;-76
2023/01/03 06:24:59;;;;;;;148.57;86.35;;;;;;;4.24;70.79;95694.59;4160208;28;20050;-77
2023/01/03 06:27:01;;;;;;;141.30;85.03;;;;;;;4.30;70.48;95695.94;4178559;28;20049;-76
2023/01/03 06:29:04;;;;;;;144.95;86.07;;;;;;;4.34;69.57;95699.19;4168946;28;20061;-78
2023/01/03 06:31:06;;;;;;;142.73;84.70;;;;;;;4.52;69.86;95687.66;4168162;28;20052;-79
2023/01/03 06:33:07;;;;;;;124.10;76.55;;;;;;;4.65;68.80;95691.13;4172533;28;20084;-76
2023/01/03 06:35:09;;;;;;;127.47;76.93;;;;;;;4.75;68.75;95687.94;4165331;28;20503;-77
2023/01/03 06:37:11;;;;;;;132.57;78.95;;;;;;;4.74;68.54;95681.91;4167647;28;20135;-75
2023/01/03 06:39:13;;;;;;;137.95;80.47;;;;;;;4.84;69.10;95684.72;4175549;28;20539;-77
2023/01/03 06:41:15;;;;;;;144.20;84.07;;;;;;;4.94;68.45;95685.81;4166747;28;20058;-76
2023/01/03 06:43:16;;;;;;;142.95;84.85;;;;;;;5.03;67.67;95684.38;4173696;28;20061;-75
2023/01/03 06:54:39;;;;;;;133.43;75.45;;;;;;;4.15;70.67;95696.91;4165940;28;20061;-77
2023/01/03 06:56:41;;;;;;;135.55;81.13;;;;;;;4.19;71.04;95707.00;4181047;28;20492;-76
2023/01/03 06:58:43;;;;;;;138.05;83.22;;;;;;;3.94;70.89;95707.69;4181588;28;20045;-79
2023/01/03 07:00:45;;;;;;;149.90;83.93;;;;;;;3.75;71.52;95709.75;4168181;28;20053;-77
2023/01/03 07:02:46;;;;;;;140.88;85.80;;;;;;;3.73;71.85;95709.00;4163097;28;20487;-74
2023/01/03 07:04:48;;;;;;;146.32;87.18;;;;;;;3.82;72.42;95706.66;4180580;28;20140;-77
2023/01/03 07:06:50;;;;;;;153.18;85.60;;;;;;;3.94;71.45;95712.88;4180406;28;20053;-76
2023/01/03 07:08:52;;;;;;;154.85;88.93;;;;;;;4.10;70.93;95716.19;4151771;28;20045;-77
2023/01/03 07:10:54;;;;;;;150.35;85.82;;;;;;;4.15;70.54;95715.06;4172990;28;20045;-78
2023/01/03 07:15:19;;;;;;;135.55;81.25;;;;;;;4.43;70.53;95724.56;4150218;28;20105;-78
2023/01/03 07:17:21;;;;;;;128.68;80.60;;;;;;;4.64;71.70;95725.78;4173552;28;20057;-74
2023/01/03 07:19:22;;;;;;;150.43;84.03;;;;;;;4.82;70.22;95721.19;4173212;28;20404;-76
2023/01/03 07:21:26;;;;;;;143.48;84.10;;;;;;;4.98;69.36;95733.19;4178923;28;20064;-78
2023/01/03 07:23:28;;;;;;;140.88;83.63;;;;;;;5.10;68.41;95727.22;4179890;28;20075;-76
2023/01/03 07:25:29;;;;;;;138.82;84.32;;;;;;;5.18;67.88;95735.31;4156989;28;20089;-78
2023/01/03 07:27:31;;;;;;;139.05;82.57;;;;;;;5.29;67.13;95726.81;4167681;28;20511;-76
2023/01/03 07:29:33;;;;;;;144.00;81.97;;;;;;;5.29;66.89;95729.41;4180360;28;20129;-74
2023/01/03 07:31:38;;;;;;;131.77;79.03;;;;;;;5.39;67.00;95727.03;4167749;28;20707;-76
2023/01/03 07:33:40;;;;;;;134.27;79.38;;;;;;;5.50;66.23;95729.75;4173918;28;20067;-78
2023/01/03 07:35:42;;;;;;;131.25;79.32;;;;;;;5.60;66.23;95727.38;4180319;28;20057;-76
2023/01/03 07:37:44;;;;;;;140.90;81.22;;;;;;;5.67;66.04;95731.22;4170063;28;20108;-78
2023/01/03 07:39:45;;;;;;;137.25;77.30;;;;;;;5.74;65.54;95730.72;4176305;28;20049;-78
2023/01/03 07:44:07;;;;;;;135.60;77.93;;;;;;;5.99;65.38;95721.25;4167804;28;20045;-76
2023/01/03 07:46:17;;;;;;;135.38;76.05;;;;;;;6.17;65.10;95719.13;4151086;28;20051;-79
2023/01/03 07:48:18;;;;;;;127.80;72.68;;;;;;;6.18;64.94;95722.59;4175350;28;20056;-78
2023/01/03 07:50:20;;;;;;;133.88;76.65;;;;;;;6.22;65.04;95719.66;4174732;28;20138;-77
2023/01/03 07:52:22;;;;;;;127.07;73.03;;;;;;;6.29;64.83;95722.66;4165957;28;20073;-80
2023/01/03 07:54:24;;;;;;;131.02;75.03;;;;;;;6.30;65.38;95721.72;4175834;28;20447;-77
2023/01/03 07:56:25;;;;;;;136.73;74.95;;;;;;;6.41;64.85;95718.34;4169727;28;20057;-77
2023/01/03 07:58:27;;;;;;;127.47;77.50;;;;;;;6.47;64.61;95723.13;4179105;28;20048;-77
2023/01/03 08:00:29;;;;;;;124.72;74.30;;;;;;;6.54;64.73;95722.59;4179483;28;20057;-78
2023/01/03 08:02:30;;;;;;;133.88;77.57;;;;;;;6.61;64.00;95727.38;4179905;28;20115;-78
2023/01/03 08:04:32;;;;;;;128.32;74.45;;;;;;;6.59;63.76;95724.03;4180276;28;20291;-76
2023/01/03 08:06:34;;;;;;;125.60;73.88;;;;;;;6.68;63.99;95731.19;4169432;28;20388;-77
2023/01/03 08:08:36;;;;;;;127.20;73.72;;;;;;;6.75;63.76;95729.78;4179752;28;20115;-77
2023/01/03 08:13:16;;;;;;;118.90;71.97;;;;;;;6.86;63.96;95731.63;4165093;28;20119;-79
2023/01/03 08:15:18;;;;;;;120.18;69.20;;;;;;;7.00;63.95;95728.84;4165420;28;20076;-79
2023/01/03 08:17:20;;;;;;;119.20;71.75;;;;;;;7.07;62.86;95724.03;4153932;28;20480;-75
2023/01/03 08:19:22;;;;;;;127.20;70.93;;;;;;;7.15;63.14;95719.09;4167976;28;20053;-77
2023/01/03 08:21:24;;;;;;;126.85;73.50;;;;;;;7.22;62.81;95727.28;4162417;28;20059;-76
2023/01/03 08:23:26;;;;;;;125.70;75.05;;;;;;;7.27;62.83;95723.41;4179767;28;20495;-77
2023/01/03 08:25:27;;;;;;;123.50;73.40;;;;;;;7.32;62.51;95726.50;4170717;28;20484;-77
2023/01/03 08:27:29;;;;;;;134.30;73.45;;;;;;;7.41;62.32;95731.97;4165251;28;20057;-77
2023/01/03 08:29:31;;;;;;;136.18;76.05;;;;;;;7.42;61.58;95729.25;4177149;28;20134;-74
2023/01/03 08:31:35;;;;;;;117.75;72.22;;;;;;;7.52;61.88;95722.38;4166901;28;20488;-74
2023/01/03 08:33:41;;;;;;;123.75;74.43;;;;;;;7.64;61.63;95718.03;4176556;28;20453;-77
2023/01/03 08:35:47;;;;;;;118.28;73.40;;;;;;;7.70;61.66;95720.19;4167243;28;20053;-77
2023/01/03 08:37:49;;;;;;;130.80;73.50;;;;;;;7.81;61.32;95724.59;4151117;28;20108;-77
2023/01/03 08:39:55;;;;;;;125.90;71.30;;;;;;;7.86;60.71;95722.44;4171215;28;20136;-76
2023/01/03 08:42:00;;;;;;;121.88;70.25;;;;;;;7.87;60.76;95718.06;4177445;28;20088;-77
2023/01/03 08:44:03;;;;;;;123.15;70.47;;;;;;;7.93;61.36;95725.41;4176810;28;20137;-78
2023/01/03 08:46:06;;;;;;;116.20;66.13;;;;;;;7.88;61.10;95719.72;4172435;28;20049;-76
2023/01/03 08:48:09;;;;;;;121.97;70.95;;;;;;;7.97;60.82;95719.03;4169516;28;20136;-76
2023/01/03 08:50:12;;;;;;;113.25;67.32;;;;;;;8.04;60.99;95716.75;4161856;28;20080;-75
2023/01/03 08:52:13;;;;;;;119.03;69.68;;;;;;;8.10;60.35;95719.72;4158165;28;20144;-77
2023/01/03 08:54:15;;;;;;;121.75;67.55;;;;;;;8.22;60.51;95717.97;4173155;28;20068;-75
2023/01/03 08:56:20;;;;;;;115.18;67.10;;;;;;;8.25;59.77;95709.06;4168765;28;20284;-75
2023/01/03 08:58:22;;;;;;;117.70;67.50;;;;;;;8.39;60.72;95719.25;4169340;28;20052;-76
2023/01/03 09:00:24;;;;;;;109.95;66.80;;;;;;;8.44;60.01;95714.53;4170225;28;20057;-76
2023/01/03 09:02:26;;;;;;;116.75;66.25;;;;;;;8.51;60.03;95702.63;4160209;28;20068;-76
2023/01/03 09:04:28;;;;;;;110.72;66.43;;;;;;;8.51;59.18;95714.88;4176393;28;20140;-75
2023/01/03 09:06:30;;;;;;;110.38;64.38;;;;;;;8.49;59.84;95707.13;4164760;28;20125;-76
2023/01/03 09:08:33;;;;;;;119.15;65.80;;;;;;;8.60;59.28;95706.28;4161668;28;20053;-77
2023/01/03 09:10:35;;;;;;;107.38;65.30;;;;;;;8.65;59.77;95708.53;4168068;28;20079;-76
2023/01/03 09:12:42;;;;;;;104.85;64.47;;;;;;;8.80;59.99;95709.94;4179329;28;20090;-76
2023/01/03 09:14:44;;;;;;;103.75;62.45;;;;;;;8.98;59.13;95699.78;4178541;28;20072;-77
2023/01/03 09:16:45;;;;;;;108.50;65.93;;;;;;;9.12;58.39;95696.88;4162299;28;20053;-81
2023/01/03 09:18:50;;;;;;;103.32;61.22;;;;;;;9.30;57.81;95704.16;4151771;28;20053;-78
2023/01/03 09:20:51;;;;;;;106.75;65.90;;;;;;;9.37;57.39;95695.66;4178991;28;20068;-76
2023/01/03 09:22:53;;;;;;;111.72;66.13;;;;;;;9.46;56.84;95693.25;4177287;28;20048;-76
2023/01/03 09:24:55;;;;;;;108.63;64.15;;;;;;;9.39;56.77;95691.13;4162381;28;20076;-79
2023/01/03 09:26:57;;;;;;;108.93;64.03;;;;;;;9.31;57.57;95685.72;4162294;28;20049;-75
2023/01/03 09:28:58;;;;;;;111.57;62.97;;;;;;;9.35;57.43;95687.13;4145460;28;20191;-77
2023/01/03 09:31:00;;;;;;;107.50;64.85;;;;;;;9.48;57.25;95678.25;4163633;28;20200;-77
2023/01/03 09:33:03;;;;;;;103.35;61.67;;;;;;;9.64;57.20;95676.03;4166703;28;20048;-78
2023/01/03 09:35:05;;;;;;;107.60;63.03;;;;;;;9.78;56.56;95667.00;4178737;28;20103;-78
2023/01/03 09:37:07;;;;;;;104.25;63.53;;;;;;;9.75;56.83;95659.41;4160821;28;20049;-76
2023/01/03 09:39:09;;;;;;;96.38;60.30;;;;;;;9.79;56.37;95658.19;4178344;28;20114;-74
2023/01/03 09:41:16;;;;;;;96.97;61.03;;;;;;;9.82;56.62;95657.94;4174000;28;20045;-77
2023/01/03 09:43:21;;;;;;;111.18;63.20;;;;;;;9.93;56.58;95654.38;4145004;28;20065;-76
2023/01/03 09:45:31;;;;;;;104.00;64.10;;;;;;;9.94;55.47;95656.06;4163706;28;20061;-76
2023/01/03 09:47:36;;;;;;;112.75;63.67;;;;;;;9.99;56.60;95648.63;4177132;28;20076;-77
2023/01/03 09:49:38;;;;;;;113.93;71.00;;;;;;;10.05;55.85;95645.50;4160492;28;20061;-75
2023/01/03 10:04:34;;;;;;;136.52;76.40;;;;;;;9.16;57.24;95634.69;4170504;28;20102;-79
2023/01/03 10:06:42;;;;;;;141.13;78.68;;;;;;;9.06;57.46;95629.41;4169745;28;20139;-78
2023/01/03 10:08:54;;;;;;;141.00;79.18;;;;;;;9.11;57.06;95626.41;4164628;28;20465;-76
2023/01/03 10:11:24;;;;;;;127.40;75.70;;;;;;;9.34;57.15;95612.25;4169657;28;20052;-76
2023/01/03 10:13:35;;;;;;;133.93;76.75;;;;;;;9.66;56.13;95613.09;4167556;28;20060;-77
2023/01/03 10:15:50;;;;;;;135.80;77.85;;;;;;;9.95;55.81;95613.22;4172726;28;20119;-78
2023/01/03 10:18:08;;;;;;;140.35;81.18;;;;;;;10.00;54.66;95611.00;4158433;28;20077;-75
2023/01/03 10:20:32;;;;;;;131.05;75.75;;;;;;;9.98;55.03;95607.69;4170019;28;20048;-77
2023/01/03 10:22:35;;;;;;;129.52;75.10;;;;;;;9.92;55.00;95609.06;4177796;28;20412;-77
2023/01/03 10:24:52;;;;;;;140.07;76.15;;;;;;;9.92;54.98;95605.63;4177872;28;20045;-76
2023/01/03 10:27:10;;;;;;;145.73;83.82;;;;;;;9.72;55.78;95597.72;4169332;28;20049;-77
2023/01/03 10:29:15;;;;;;;145.38;81.15;;;;;;;9.87;55.59;95586.88;4176913;28;20057;-77
2023/01/03 10:31:49;;;;;;;141.93;85.15;;;;;;;10.13;55.12;95588.06;4154632;28;20065;-75
2023/01/03 10:33:51;;;;;;;147.50;85.88;;;;;;;10.20;54.36;95575.25;4161682;28;20139;-76
2023/01/03 10:35:53;;;;;;;151.57;86.93;;;;;;;10.33;54.27;95577.66;4182238;28;20049;-75
2023/01/03 10:37:55;;;;;;;148.77;84.85;;;;;;;10.41;54.00;95576.00;4170595;28;20080;-77
2023/01/03 10:40:02;;;;;;;151.65;89.22;;;;;;;10.58;53.49;95568.41;4152048;28;20412;-74